Nevada, TX (75173)

04:52 CDT le 30 août 2015 (GMT -0500)
Nevada Lakes | | Change Station
CLOSE
Current Station
Stations météorologiques personnelles
Location: Nevada, TX
Altitude: 600 ft
Stations météo à proximité

Alt. 600 ft 33.05 °N, 96.38 °W | Updated 9 minutes ago

Partiellement nuageux
Partiellement nuageux
74.8 ° F
Paraît 76 ° F
N
2.7
Vent Variable Vent de SSO

Aujourd'hui
Haut(e) -- | Bas -- ° F
--% Risque de précip.
Hier
Haut(e) -- | Bas -- ° F
Precip. -- pouce
6:58 AM 7:53 PM
Lune gibbeuse croissante, 99% visible
Pression 29.95 pouce
Visibilité 10.0 Miles terrestres
Nuages Ciel dégagé
indice de chaleur 76 ° F
Point de rosée 68 ° F
Humidité 78%
Précipitations 0.00 pouce
Profondeur de la couche neigeuse Non disponible.
UV 0 sur 12
Pollen 8.50 sur 12
Qualité de l'air Non disponible.
Flu Activity Non disponible.
METAR KF46 300935Z AUTO 17005KT 10SM CLR 23/20 A2995 RMK AO2 T02330195
Pression 29.95 pouce
Visibilité 10.0 Miles terrestres
Nuages Ciel dégagé
indice de chaleur 76 ° F
Point de rosée 68 ° F
Humidité 78%
Précipitations 0.00 pouce
Profondeur de la couche neigeuse Non disponible.
UV 0 sur 12
Pollen 8.50 sur 12
Qualité de l'air Non disponible.
Flu Activity Non disponible.
METAR KF46 300935Z AUTO 17005KT 10SM CLR 23/20 A2995 RMK AO2 T02330195

10-Day Weather Forecast

×

Almanac

Astronomie

Aug. 30, 2015 Lever Coucher
Temps réel
Crépuscule civil
Crépuscule nautique
Crépuscule astronomique
Lune
Durée de lumière visible
Longueur du jour
Tomorrow will be .
, % of the Moon is Illuminated

Extrêmes aujourd'hui

State Highs State Lows

Community

WunderPhotos

Upload Photos

1,850,919 Photos téléchargées !

WunderBlogs® & News

Nearby

Qualité de l'air

  Qualité de l'air Indice de la qualité de l'air Polluant
Not available.

Épaisseur de neige

Station Depth Altitude

Activité sismique

Ville Distance Mag. Time & Date
Minimum magnitude displayed is 2.5.

Températures des eaux côtières

Lieu Température

Stations

Stations météo à proximité

Emplacement de la station Température Refroidissement éolien Point de rosée Humidité Vent Precip. Alt. Mise à jour Type